createdAt,value
2018-10-06T03:03:52.710Z,99.99
2018-10-06T03:04:47.621Z,99.99
2018-10-06T03:05:48.044Z,99.99
2018-10-06T03:06:48.261Z,99.99
2018-10-06T03:07:49.079Z,99.99
2018-10-06T03:08:51.334Z,99.99
2018-10-06T03:09:50.560Z,99.99
2018-10-06T03:10:48.922Z,99.99
2018-10-06T03:11:51.471Z,99.92
2018-10-06T03:12:53.516Z,99.99
2018-10-06T03:13:49.003Z,99.99
2018-10-06T03:14:48.702Z,99.26
2018-10-06T03:15:49.106Z,99.35
2018-10-06T03:16:47.953Z,99.35
2018-10-06T03:17:48.220Z,99.35
2018-10-06T03:18:48.076Z,99.30
2018-10-06T03:19:47.906Z,99.49
2018-10-06T03:20:47.892Z,99.21
2018-10-06T03:21:49.392Z,99.49
2018-10-06T03:22:48.681Z,99.21
2018-10-06T03:23:49.583Z,99.40
2018-10-06T03:24:48.668Z,99.58
2018-10-06T03:25:49.178Z,99.49
2018-10-06T03:26:49.425Z,99.77
2018-10-06T03:27:49.785Z,99.99
2018-10-06T03:28:49.052Z,99.87
2018-10-06T03:30:49.825Z,99.99
2018-10-06T03:31:50.635Z,99.99
2018-10-06T03:32:50.948Z,99.99
2018-10-06T03:33:51.482Z,99.99
2018-10-06T03:34:50.383Z,99.99
2018-10-06T03:35:50.556Z,99.99
2018-10-06T03:36:51.033Z,99.99
2018-10-06T03:37:51.057Z,99.99
2018-10-06T03:38:51.652Z,99.92
2018-10-06T03:39:52.046Z,99.21
2018-10-06T03:40:51.256Z,98.92
2018-10-06T03:41:51.884Z,98.92
2018-10-06T03:42:51.984Z,98.73
2018-10-06T03:43:52.216Z,99.02
2018-10-06T03:44:53.026Z,99.40
2018-10-06T03:45:53.531Z,99.40
2018-10-06T03:46:52.323Z,99.77
2018-10-06T03:47:52.851Z,99.87
2018-10-06T03:48:52.607Z,99.99
2018-10-06T03:49:53.183Z,99.99
2018-10-06T03:50:53.495Z,99.99
2018-10-06T03:51:53.719Z,99.99
2018-10-06T03:52:53.455Z,99.87
2018-10-06T03:54:54.823Z,99.99
2018-10-06T03:55:54.431Z,99.99
2018-10-06T03:56:55.086Z,99.40
2018-10-06T03:57:54.533Z,99.49
2018-10-06T03:59:56.231Z,99.99
2018-10-06T04:01:03.465Z,99.49
2018-10-06T04:01:56.201Z,99.21
2018-10-06T04:02:56.237Z,99.99
2018-10-06T04:03:55.549Z,99.49
2018-10-06T04:04:55.681Z,99.99
2018-10-06T04:05:57.999Z,99.99
2018-10-06T04:06:57.040Z,99.99
2018-10-06T04:07:56.694Z,99.99
2018-10-06T04:08:58.262Z,99.99
2018-10-06T04:09:57.701Z,99.99
2018-10-06T04:10:57.191Z,99.99
2018-10-06T04:11:57.085Z,99.99
2018-10-06T04:12:59.254Z,99.99
2018-10-06T04:13:58.145Z,99.99
2018-10-06T04:14:58.652Z,99.99
2018-10-06T04:15:59.140Z,99.99
2018-10-06T04:16:59.015Z,99.87
2018-10-06T04:19:46.321Z,99.30
2018-10-06T04:20:47.125Z,99.40
2018-10-06T04:21:49.666Z,99.30
2018-10-06T04:22:45.943Z,99.40
2018-10-06T04:23:49.654Z,99.49
2018-10-06T04:24:54.915Z,99.21
2018-10-06T04:25:50.639Z,99.99
2018-10-06T04:26:57.249Z,99.11
2018-10-06T04:27:49.117Z,99.87
2018-10-06T04:28:56.831Z,99.99
2018-10-06T04:29:49.714Z,99.99
2018-10-06T04:31:03.189Z,99.99
2018-10-06T04:31:51.186Z,99.68
2018-10-06T04:32:48.339Z,99.99
2018-10-06T04:33:47.315Z,99.99
2018-10-06T04:34:46.678Z,99.99
2018-10-06T04:35:46.232Z,99.99
2018-10-06T04:36:48.265Z,99.99
2018-10-06T04:37:47.154Z,99.99
2018-10-06T04:38:46.499Z,99.99
2018-10-06T04:39:49.481Z,99.99
2018-10-06T04:40:46.461Z,99.99
2018-10-06T04:41:47.031Z,99.58
2018-10-06T04:42:49.009Z,99.99
2018-10-06T04:43:47.538Z,99.99
2018-10-06T04:44:50.300Z,99.97
2018-10-06T04:45:47.664Z,99.99
2018-10-06T04:46:50.427Z,99.99
2018-10-06T04:47:48.329Z,99.97
2018-10-06T04:48:50.704Z,99.99
2018-10-06T04:49:49.324Z,99.99
2018-10-06T04:50:51.044Z,99.99
2018-10-06T04:51:50.217Z,99.99
2018-10-06T04:52:49.557Z,99.99
2018-10-06T04:53:51.215Z,99.99
2018-10-06T04:54:50.624Z,99.99
2018-10-06T04:55:54.880Z,99.99
2018-10-06T04:56:56.989Z,99.99
2018-10-06T04:57:49.957Z,99.68
2018-10-06T04:58:51.926Z,99.77
2018-10-06T04:59:51.170Z,99.44
2018-10-06T05:00:51.553Z,99.82
2018-10-06T05:01:51.884Z,99.58
2018-10-06T05:02:51.276Z,99.99
2018-10-06T05:03:51.626Z,99.99
2018-10-06T05:04:53.285Z,99.99
2018-10-06T05:05:52.039Z,99.99
2018-10-06T05:07:02.367Z,99.99
2018-10-06T05:07:52.345Z,99.99
2018-10-06T05:08:52.363Z,99.99
2018-10-06T05:09:55.324Z,99.99
2018-10-06T05:10:52.901Z,99.99
2018-10-06T05:11:53.084Z,99.99
2018-10-06T05:12:53.090Z,99.99
2018-10-06T05:13:54.319Z,99.99
2018-10-06T05:14:53.706Z,99.99
2018-10-06T05:15:53.576Z,99.99
2018-10-06T05:16:55.589Z,99.99
2018-10-06T05:17:55.987Z,99.99
2018-10-06T05:18:54.278Z,99.99
2018-10-06T05:19:54.360Z,99.99
2018-10-06T05:20:54.419Z,99.68
2018-10-06T05:21:54.623Z,99.99
2018-10-06T05:22:55.047Z,99.99
2018-10-06T05:23:54.318Z,99.99
2018-10-06T05:24:54.406Z,99.87
2018-10-06T05:25:54.843Z,99.77
2018-10-06T05:26:56.074Z,99.87
2018-10-06T05:27:55.043Z,99.99
2018-10-06T05:28:55.053Z,99.99
2018-10-06T05:29:54.890Z,99.99
2018-10-06T05:30:55.554Z,99.99
2018-10-06T05:31:55.870Z,99.99
2018-10-06T05:32:55.315Z,99.99
2018-10-06T05:34:00.251Z,99.99
2018-10-06T05:35:56.167Z,99.99
2018-10-06T05:36:57.411Z,99.99
2018-10-06T05:37:57.311Z,99.99
2018-10-06T05:38:57.175Z,99.99
2018-10-06T05:39:58.689Z,99.99
2018-10-06T05:40:56.766Z,99.99
2018-10-06T05:41:58.803Z,99.99
2018-10-06T05:42:57.623Z,99.99
2018-10-06T05:43:58.005Z,99.87
2018-10-06T05:44:57.648Z,99.99
2018-10-06T05:45:59.078Z,99.58
2018-10-06T05:46:58.124Z,99.87
2018-10-06T05:47:57.742Z,99.97
2018-10-06T05:48:58.089Z,99.99
2018-10-06T05:49:58.520Z,99.99
2018-10-06T05:50:58.353Z,99.99
2018-10-06T05:51:59.264Z,99.99
2018-10-06T05:52:58.755Z,99.99
2018-10-06T05:53:58.940Z,99.99
2018-10-06T05:54:59.267Z,99.92
2018-10-06T05:55:59.245Z,99.49
2018-10-06T05:57:00.685Z,99.30
2018-10-06T05:58:00.875Z,98.54
2018-10-06T05:59:00.124Z,98.92
2018-10-06T05:59:59.830Z,98.73
2018-10-06T06:01:00.070Z,99.11
2018-10-06T06:01:59.897Z,98.83
2018-10-06T06:03:02.583Z,98.92
2018-10-06T06:04:01.236Z,98.64
2018-10-06T06:05:01.183Z,98.73
2018-10-06T06:06:00.733Z,98.73
2018-10-06T06:07:00.946Z,99.40
2018-10-06T06:08:01.258Z,99.30
2018-10-06T06:09:01.686Z,99.73
2018-10-06T06:10:01.849Z,99.64
2018-10-06T06:11:01.984Z,99.99
2018-10-06T06:12:01.729Z,99.99
2018-10-06T06:13:02.188Z,99.54
2018-10-06T06:14:01.963Z,99.54
2018-10-06T06:15:02.374Z,98.50
2018-10-06T06:16:02.511Z,98.21
2018-10-06T06:17:02.696Z,98.35
2018-10-06T06:18:03.103Z,98.69
2018-10-06T06:19:02.925Z,98.50
2018-10-06T06:20:03.255Z,98.35
2018-10-06T06:21:03.220Z,98.21
2018-10-06T06:22:03.723Z,98.50
2018-10-06T06:23:04.096Z,98.12
2018-10-06T06:24:05.388Z,98.97
2018-10-06T06:25:04.065Z,98.59
2018-10-06T06:26:04.466Z,98.97
2018-10-06T06:27:04.812Z,98.31
2018-10-06T06:28:04.583Z,98.02
2018-10-06T06:29:05.576Z,98.40
2018-10-06T06:30:05.126Z,98.50
2018-10-06T06:31:05.414Z,98.31
2018-10-06T06:32:06.281Z,97.83
2018-10-06T06:33:05.645Z,98.12
2018-10-06T06:34:06.043Z,98.40
2018-10-06T06:35:05.974Z,98.50
2018-10-06T06:36:06.106Z,98.50
2018-10-06T06:37:06.153Z,99.16
2018-10-06T06:38:06.688Z,98.69
2018-10-06T06:39:07.190Z,98.26
2018-10-06T06:40:07.899Z,99.02
2018-10-06T06:41:07.016Z,98.64
2018-10-06T06:43:08.585Z,98.55
2018-10-06T06:44:08.260Z,98.07
2018-10-06T06:45:07.858Z,98.07
2018-10-06T06:46:08.125Z,98.36
2018-10-06T06:47:08.510Z,98.07
2018-10-06T06:48:08.124Z,97.88
2018-10-06T06:49:09.889Z,97.93
2018-10-06T06:50:08.240Z,98.03
2018-10-06T06:51:08.952Z,98.22
2018-10-06T06:52:08.851Z,98.31
2018-10-06T06:53:09.413Z,97.55
2018-10-06T06:54:10.127Z,97.17
2018-10-06T06:55:09.194Z,97.03
2018-10-06T06:56:09.391Z,96.55
2018-10-06T06:57:10.217Z,96.46
2018-10-06T06:58:10.141Z,95.51
2018-10-06T06:59:10.363Z,94.60
2018-10-06T07:00:10.427Z,94.79
2018-10-06T07:01:10.392Z,93.65
2018-10-06T07:02:10.727Z,93.65
2018-10-06T07:03:11.048Z,93.27
2018-10-06T07:04:11.743Z,93.37
2018-10-06T07:05:12.071Z,93.08
2018-10-06T07:06:11.782Z,93.08
2018-10-06T07:07:11.943Z,93.18
2018-10-06T07:08:11.501Z,93.13
2018-10-06T07:09:14.292Z,92.65
2018-10-06T07:10:11.875Z,92.55
2018-10-06T07:12:15.852Z,90.89
2018-10-06T07:13:20.616Z,90.22
2018-10-06T07:16:31.384Z,88.45
2018-10-06T07:17:40.329Z,88.17
2018-10-06T07:19:35.064Z,87.16
2018-10-06T07:20:35.477Z,86.30
2018-10-06T07:22:28.947Z,84.82
2018-10-06T07:24:45.221Z,83.53
2018-10-06T07:26:32.104Z,82.32
2018-10-06T07:27:42.433Z,81.18
2018-10-06T07:28:35.859Z,80.84
2018-10-06T07:29:27.722Z,80.02
2018-10-06T07:30:30.819Z,79.44
2018-10-06T07:31:28.326Z,77.95
2018-10-06T07:37:58.627Z,73.38
2018-10-06T07:38:31.108Z,72.61
2018-10-06T07:40:27.455Z,71.59
2018-10-06T07:41:27.812Z,71.50
2018-10-06T07:42:27.324Z,71.05
2018-10-06T07:43:26.943Z,71.05
2018-10-06T07:44:27.964Z,69.46
2018-10-06T07:45:30.524Z,70.00
2018-10-06T07:46:28.956Z,69.52
2018-10-06T07:47:28.472Z,69.36
2018-10-06T07:48:27.494Z,69.46
2018-10-06T07:49:27.933Z,69.36
2018-10-06T07:50:28.639Z,68.98
2018-10-06T07:51:28.070Z,68.88
2018-10-06T07:52:29.657Z,68.50
2018-10-06T07:53:28.720Z,69.56
2018-10-06T07:54:28.761Z,68.88
2018-10-06T07:55:28.782Z,69.46
2018-10-06T07:56:28.936Z,69.65
2018-10-06T07:57:29.527Z,69.93
2018-10-06T07:58:29.472Z,69.65
2018-10-06T07:59:30.207Z,70.03
2018-10-06T08:00:30.011Z,70.99
2018-10-06T08:01:29.814Z,70.61
2018-10-06T08:02:29.793Z,70.70
2018-10-06T08:03:30.431Z,71.57
2018-10-06T08:04:30.416Z,71.19
2018-10-06T08:05:30.965Z,70.99
2018-10-06T08:06:30.494Z,70.23
2018-10-06T08:07:33.050Z,70.70
2018-10-06T08:08:31.482Z,70.61
2018-10-06T08:09:31.005Z,70.70
2018-10-06T08:10:31.085Z,71.19
2018-10-06T08:11:31.315Z,71.12
2018-10-06T08:12:31.436Z,69.72
2018-10-06T08:13:31.922Z,67.64
2018-10-06T08:14:32.272Z,65.84
2018-10-06T08:15:32.151Z,65.50
2018-10-06T08:16:31.998Z,64.05
2018-10-06T08:17:32.371Z,65.46
2018-10-06T08:18:33.003Z,66.52
2018-10-06T08:19:32.923Z,66.23
2018-10-06T08:20:33.050Z,66.52
2018-10-06T08:21:33.518Z,65.40
2018-10-06T08:22:33.551Z,65.01
2018-10-06T08:23:34.470Z,65.78
2018-10-06T08:24:33.927Z,65.63
2018-10-06T08:25:33.842Z,65.14
2018-10-06T08:26:35.097Z,64.18
2018-10-06T08:27:34.433Z,64.02
2018-10-06T08:28:35.007Z,63.92
2018-10-06T08:29:34.884Z,63.73
2018-10-06T08:30:35.720Z,62.90
2018-10-06T08:31:37.215Z,61.87
2018-10-06T08:32:35.040Z,61.00
2018-10-06T08:33:36.140Z,61.13
2018-10-06T08:35:38.197Z,60.19
2018-10-06T08:36:36.347Z,59.13
2018-10-06T08:37:36.127Z,58.10
2018-10-06T08:38:37.191Z,57.93
2018-10-06T08:39:36.493Z,57.26
2018-10-06T08:40:37.602Z,56.71
2018-10-06T08:41:36.942Z,56.41
2018-10-06T08:42:36.708Z,57.29
2018-10-06T08:43:37.107Z,56.77
2018-10-06T08:44:37.610Z,56.87
2018-10-06T08:45:37.524Z,57.77
2018-10-06T08:46:38.270Z,56.80
2018-10-06T08:47:38.785Z,57.21
2018-10-06T08:49:39.390Z,56.63
2018-10-06T08:50:39.810Z,56.37
2018-10-06T08:51:47.426Z,56.63
2018-10-06T08:52:40.147Z,55.31
2018-10-06T08:53:39.127Z,55.34
2018-10-06T08:54:39.035Z,55.31
2018-10-06T08:55:39.391Z,55.73
2018-10-06T08:56:39.785Z,55.89
2018-10-06T08:57:39.809Z,55.15
2018-10-06T08:58:40.732Z,55.24
2018-10-06T08:59:44.916Z,55.27
2018-10-06T09:00:40.588Z,54.59
2018-10-06T09:01:42.887Z,55.36
2018-10-06T09:02:51.432Z,54.81
2018-10-06T09:03:41.981Z,54.30
2018-10-06T09:04:46.697Z,55.27
2018-10-06T09:05:56.242Z,56.34
2018-10-06T09:06:45.268Z,55.58
2018-10-06T09:07:43.055Z,54.55
2018-10-06T09:08:42.974Z,54.55
2018-10-06T09:10:42.624Z,53.00
2018-10-06T09:11:47.570Z,52.54
2018-10-06T09:12:42.252Z,52.15
2018-10-06T09:13:43.142Z,52.15
2018-10-06T09:14:55.026Z,53.80
2018-10-06T10:28:18.716Z,41.36
2018-10-06T10:28:57.108Z,41.28
2018-10-06T10:30:25.161Z,43.04
2018-10-06T11:05:31.821Z,36.63
2018-10-06T11:11:23.232Z,34.83
2018-10-06T11:12:12.919Z,36.28
2018-10-06T11:28:21.436Z,37.79
2018-10-06T11:29:10.592Z,37.21
2018-10-06T11:29:57.509Z,37.40
2018-10-06T11:38:12.106Z,37.91
2018-10-06T12:12:16.341Z,28.86
2018-10-06T12:13:55.367Z,30.13
2018-10-06T12:26:43.340Z,28.17
2018-10-06T12:36:39.819Z,28.26
2018-10-06T14:45:41.751Z,47.30
2018-10-06T14:46:12.000Z,47.40
2018-10-06T14:47:04.747Z,47.50
2018-10-06T14:48:05.856Z,47.30
2018-10-06T14:49:11.156Z,47.72
2018-10-06T14:50:24.600Z,47.81
2018-10-06T14:51:14.713Z,47.30
2018-10-06T14:52:47.365Z,47.89
2018-10-06T14:53:10.246Z,48.37
2018-10-06T14:55:12.739Z,48.35
2018-10-06T14:56:06.550Z,48.35
2018-10-06T14:58:06.721Z,48.35
2018-10-06T14:59:48.087Z,49.02
2018-10-06T15:05:55.890Z,50.07
2018-10-06T15:41:09.986Z,55.21
2018-10-06T15:42:21.963Z,55.29
2018-10-06T15:43:23.389Z,54.80
2018-10-06T15:44:12.109Z,55.29
2018-10-06T15:45:12.016Z,55.96
2018-10-06T15:46:14.554Z,56.45
2018-10-06T15:47:14.782Z,58.18
2018-10-06T15:49:13.710Z,56.03
2018-10-06T15:50:11.762Z,56.32
2018-10-06T15:51:10.968Z,56.61
2018-10-06T15:52:10.400Z,57.09
2018-10-06T15:53:09.782Z,57.29
2018-10-06T15:54:10.057Z,56.80
2018-10-06T15:55:10.347Z,58.25
2018-10-06T15:56:10.378Z,57.77
2018-10-06T15:57:10.533Z,57.29
2018-10-06T15:58:10.687Z,57.29
2018-10-06T15:59:11.118Z,58.06
2018-10-06T16:00:11.554Z,57.96
2018-10-06T16:01:11.394Z,58.25
2018-10-06T16:02:11.703Z,57.77
2018-10-06T16:03:11.788Z,58.06
2018-10-06T16:04:11.953Z,58.90
2018-10-06T16:05:12.111Z,58.42
2018-10-06T16:06:12.610Z,58.42
2018-10-06T16:07:17.874Z,58.42
2018-10-06T16:08:12.665Z,58.03
2018-10-06T16:09:13.427Z,58.42
2018-10-06T16:10:12.889Z,57.84
2018-10-06T16:11:13.400Z,58.03
2018-10-06T16:12:14.193Z,57.93
2018-10-06T16:13:13.739Z,58.32
2018-10-06T16:14:13.686Z,57.93
2018-10-06T16:15:13.980Z,58.12
2018-10-06T16:16:14.346Z,58.12
2018-10-06T16:17:14.396Z,58.80
2018-10-06T16:18:14.633Z,59.48
2018-10-06T16:19:16.196Z,59.48
2018-10-06T16:20:40.127Z,59.48
2018-10-06T17:53:20.786Z,78.78
2018-10-06T17:54:17.278Z,78.40
2018-10-06T17:57:17.125Z,78.98
2018-10-06T17:58:13.943Z,79.36
2018-10-06T17:59:20.139Z,79.07
2018-10-06T18:00:13.245Z,79.55
2018-10-06T18:01:11.908Z,78.98
2018-10-06T18:13:30.080Z,78.59
2018-10-06T18:14:26.850Z,78.78
2018-10-06T18:15:27.456Z,78.98
2018-10-06T18:19:13.526Z,79.46
2018-10-06T18:38:50.324Z,84.14
2018-10-06T18:41:36.781Z,85.10
2018-10-06T18:42:35.879Z,85.10
2018-10-06T18:43:40.334Z,84.61
2018-10-06T19:35:09.787Z,86.68
2018-10-06T19:37:48.653Z,87.55
2018-10-06T19:42:13.041Z,87.16
2018-10-06T19:42:30.067Z,87.26
2018-10-06T19:47:20.123Z,87.79
2018-10-06T19:47:44.453Z,88.41
2018-10-06T19:54:06.201Z,88.84
2018-10-06T20:02:30.200Z,89.51
2018-10-06T21:02:58.295Z,91.82
2018-10-06T21:13:01.468Z,93.59
2018-10-06T21:16:33.639Z,93.59
2018-10-06T21:20:51.395Z,93.98
2018-10-06T21:22:39.676Z,94.45
2018-10-06T21:42:29.562Z,95.31
2018-10-06T21:46:29.810Z,95.70
2018-10-06T21:47:58.387Z,96.47
